Time;durP1;ratioP1;P1;durP2;ratioP2;P2;SDS_P1;SDS_P2;PMS_P1;PMS_P2;Temp;Humidity;BMP_temperature;BMP_pressure;BME280_temperature;BME280_humidity;BME280_pressure;Samples;Min_cycle;Max_cycle;Signal;HPM_P1;HPM_P2
2022/12/16 00:01:15;;;;;;;24.53;9.90;;;;;;;-0.36;61.02;99667.63;5135858;27;20212;-65
2022/12/16 00:03:49;;;;;;;25.27;10.57;;;;;;;-0.45;60.85;99664.69;5141247;27;20206;-66
2022/12/16 00:06:19;;;;;;;23.97;10.30;;;;;;;-0.35;60.50;99662.31;5137145;27;20311;-65
2022/12/16 00:08:47;;;;;;;28.47;11.13;;;;;;;-0.38;60.42;99657.31;5138704;27;20215;-64
2022/12/16 00:11:15;;;;;;;24.27;9.83;;;;;;;-0.45;60.56;99669.06;5147281;27;20312;-65
2022/12/16 00:13:43;;;;;;;26.07;10.23;;;;;;;-0.45;60.66;99671.66;5143115;27;20202;-65
2022/12/16 00:16:13;;;;;;;25.90;10.53;;;;;;;-0.58;60.91;99674.22;5140053;27;20289;-65
2022/12/16 00:18:40;;;;;;;26.17;10.13;;;;;;;-0.59;61.17;99677.75;5139179;27;22059;-65
2022/12/16 00:21:10;;;;;;;26.70;11.13;;;;;;;-0.62;61.31;99677.13;5138438;27;20211;-65
2022/12/16 00:23:40;;;;;;;21.47;9.37;;;;;;;-0.63;61.35;99681.47;5141444;27;20236;-63
2022/12/16 00:26:08;;;;;;;31.10;10.80;;;;;;;-0.64;61.46;99682.41;5137097;27;20698;-64
2022/12/16 00:28:36;;;;;;;27.23;11.20;;;;;;;-0.61;61.44;99687.41;5128135;27;20239;-63
2022/12/16 00:31:05;;;;;;;28.47;11.63;;;;;;;-0.58;61.00;99684.63;5141180;27;20860;-64
2022/12/16 00:33:32;;;;;;;23.83;10.83;;;;;;;-0.66;61.10;99686.88;5140316;27;20211;-64
2022/12/16 00:36:01;;;;;;;26.63;11.13;;;;;;;-0.72;61.31;99689.88;5138335;27;21142;-64
2022/12/16 00:38:30;;;;;;;24.70;10.90;;;;;;;-0.76;61.59;99686.63;5132150;27;20387;-64
2022/12/16 00:40:58;;;;;;;24.17;10.10;;;;;;;-0.78;61.78;99691.06;5140468;27;20216;-63
2022/12/16 00:43:26;;;;;;;27.30;11.33;;;;;;;-0.61;61.28;99692.63;5141326;27;20239;-64
2022/12/16 00:45:54;;;;;;;25.13;10.03;;;;;;;-0.59;61.35;99692.53;5124464;27;20453;-64
2022/12/16 00:48:22;;;;;;;24.27;10.03;;;;;;;-0.49;60.98;99697.06;5131155;27;20206;-63
2022/12/16 00:50:52;;;;;;;21.90;9.07;;;;;;;-0.53;60.98;99694.75;5139451;27;20227;-64
2022/12/16 00:53:23;;;;;;;26.67;9.90;;;;;;;-0.59;60.92;99701.19;5142986;27;20217;-63
2022/12/16 00:55:52;;;;;;;21.67;9.20;;;;;;;-0.66;61.11;99693.84;5131220;27;20300;-64
2022/12/16 00:58:20;;;;;;;22.60;10.23;;;;;;;-0.78;61.14;99701.47;5144549;27;21936;-64
2022/12/16 01:00:48;;;;;;;28.73;11.43;;;;;;;-0.80;61.29;99703.38;5145345;27;20285;-64
2022/12/16 01:03:18;;;;;;;19.23;9.57;;;;;;;-0.83;61.44;99705.31;5142424;27;20208;-63
2022/12/16 01:05:49;;;;;;;22.60;8.73;;;;;;;-0.77;61.21;99710.97;5143296;27;20224;-64
2022/12/16 01:08:17;;;;;;;28.23;10.90;;;;;;;-0.73;60.93;99709.03;5144916;27;20461;-64
2022/12/16 01:10:50;;;;;;;25.17;10.23;;;;;;;-0.77;60.92;99723.16;5146531;27;20695;-64
2022/12/16 01:13:20;;;;;;;26.30;10.33;;;;;;;-0.83;60.85;99719.16;5144856;27;20215;-64
2022/12/16 01:15:48;;;;;;;21.30;10.27;;;;;;;-0.69;60.97;99726.09;5144921;27;20222;-64
2022/12/16 01:18:17;;;;;;;28.63;10.53;;;;;;;-0.73;60.78;99729.84;5143511;27;20204;-64
2022/12/16 01:20:45;;;;;;;24.80;9.77;;;;;;;-0.74;60.93;99730.78;5145898;27;20202;-64
2022/12/16 01:23:12;;;;;;;27.30;10.27;;;;;;;-0.84;61.00;99730.50;5139807;27;20207;-64
2022/12/16 01:25:40;;;;;;;25.33;9.77;;;;;;;-0.88;61.32;99725.59;5145091;27;20245;-63
2022/12/16 01:28:09;;;;;;;24.80;10.17;;;;;;;-0.87;61.10;99732.44;5143458;27;20238;-65
2022/12/16 01:30:38;;;;;;;25.80;10.07;;;;;;;-0.89;61.01;99734.34;5143820;27;20599;-64
2022/12/16 01:33:06;;;;;;;22.60;9.50;;;;;;;-0.95;61.19;99734.69;5140903;27;20748;-65
2022/12/16 01:35:35;;;;;;;22.37;9.40;;;;;;;-1.00;61.43;99736.75;5136622;27;20302;-65
2022/12/16 01:38:22;;;;;;;25.83;9.57;;;;;;;-0.97;61.24;99737.41;5140914;27;20620;-65
2022/12/16 01:40:50;;;;;;;24.80;10.17;;;;;;;-0.87;60.95;99735.06;5148116;27;20205;-65
2022/12/16 01:43:23;;;;;;;25.77;9.93;;;;;;;-0.72;60.14;99730.69;5147044;27;20229;-64
2022/12/16 01:45:53;;;;;;;23.40;10.37;;;;;;;-0.67;59.76;99734.66;5146840;27;20660;-65
2022/12/16 01:48:38;;;;;;;25.50;9.67;;;;;;;-0.74;59.58;99732.53;5146255;27;20226;-65
2022/12/16 01:51:13;;;;;;;24.50;9.77;;;;;;;-0.74;59.77;99728.19;5143423;27;20228;-64
2022/12/16 01:53:42;;;;;;;24.07;9.57;;;;;;;-0.74;59.45;99733.38;5143213;27;20302;-64
2022/12/16 01:56:14;;;;;;;23.33;9.90;;;;;;;-0.81;59.53;99732.09;5144381;27;20202;-65
2022/12/16 01:58:43;;;;;;;22.17;8.47;;;;;;;-0.81;59.54;99732.94;5142732;27;20562;-64
2022/12/16 02:01:14;;;;;;;26.40;9.80;;;;;;;-0.76;59.22;99735.22;5144214;27;20215;-65
2022/12/16 02:03:42;;;;;;;24.60;9.43;;;;;;;-0.84;59.20;99727.06;5144311;27;20210;-64
2022/12/16 02:06:10;;;;;;;25.23;9.20;;;;;;;-0.93;59.78;99735.44;5145735;27;20672;-63
2022/12/16 02:08:38;;;;;;;23.57;9.67;;;;;;;-0.97;60.02;99736.56;5142623;27;21045;-64
2022/12/16 02:11:22;;;;;;;23.73;10.00;;;;;;;-0.92;60.04;99732.75;5132859;27;20224;-64
2022/12/16 02:14:06;;;;;;;19.97;8.90;;;;;;;-1.03;60.25;99734.31;5140261;27;20258;-65
2022/12/16 02:16:46;;;;;;;22.03;8.90;;;;;;;-1.17;60.61;99733.41;5141948;27;20202;-64
2022/12/16 02:19:39;;;;;;;22.23;9.23;;;;;;;-1.16;60.75;99732.47;5143321;27;20814;-64
2022/12/16 02:22:25;;;;;;;20.90;8.57;;;;;;;-1.12;60.77;99733.09;5144155;27;20198;-64
2022/12/16 02:25:25;;;;;;;20.13;8.77;;;;;;;-1.04;60.53;99730.88;5147856;27;20211;-64
2022/12/16 02:28:01;;;;;;;21.27;9.10;;;;;;;-1.09;60.40;99732.94;5142946;27;20674;-64
2022/12/16 02:30:44;;;;;;;23.10;9.17;;;;;;;-1.23;60.86;99725.94;5140219;27;20516;-64
2022/12/16 02:33:48;;;;;;;23.87;9.03;;;;;;;-1.13;60.99;99729.66;5147434;27;20230;-65
2022/12/16 02:36:30;;;;;;;18.90;7.80;;;;;;;-1.14;60.72;99725.38;5138755;27;20198;-64
2022/12/16 02:39:04;;;;;;;21.90;8.50;;;;;;;-1.16;60.74;99727.28;5150402;27;20211;-64
2022/12/16 02:41:42;;;;;;;23.13;9.60;;;;;;;-1.22;60.79;99721.56;5147395;27;20905;-64
2022/12/16 02:44:12;;;;;;;21.83;8.73;;;;;;;-1.25;61.01;99724.38;5142849;27;20208;-64
2022/12/16 02:46:43;;;;;;;19.13;8.07;;;;;;;-1.30;61.22;99722.03;5143762;27;20212;-64
2022/12/16 02:49:48;;;;;;;21.13;8.17;;;;;;;-1.29;61.09;99726.31;5132160;27;20211;-65
2022/12/16 02:52:19;;;;;;;21.73;7.67;;;;;;;-1.37;61.21;99720.72;5150348;27;20221;-64
2022/12/16 02:54:48;;;;;;;18.90;8.40;;;;;;;-1.30;61.05;99724.63;5146792;27;20206;-64
2022/12/16 02:57:29;;;;;;;20.90;8.27;;;;;;;-1.27;61.14;99726.22;5144982;27;20202;-64
2022/12/16 03:00:02;;;;;;;18.77;8.20;;;;;;;-1.27;61.09;99729.66;5139778;27;20497;-65
2022/12/16 03:02:38;;;;;;;22.20;8.17;;;;;;;-1.26;60.98;99733.94;5131182;27;20454;-64
2022/12/16 03:05:13;;;;;;;19.83;8.30;;;;;;;-1.29;61.02;99734.13;5145255;27;20204;-65
2022/12/16 03:07:42;;;;;;;21.97;8.83;;;;;;;-1.32;61.20;99741.28;5140647;27;20664;-65
2022/12/16 03:10:15;;;;;;;20.37;8.13;;;;;;;-1.27;61.07;99741.84;5144850;27;20465;-64
2022/12/16 03:12:45;;;;;;;19.60;7.63;;;;;;;-1.37;61.25;99738.94;5136008;27;20488;-65
2022/12/16 03:15:17;;;;;;;20.37;7.40;;;;;;;-1.27;61.09;99745.28;5139091;27;20671;-64
2022/12/16 03:17:49;;;;;;;21.63;8.47;;;;;;;-1.31;61.29;99743.75;5141460;27;20866;-66
2022/12/16 03:20:22;;;;;;;19.87;7.87;;;;;;;-1.30;61.07;99748.03;5149488;27;20205;-65
2022/12/16 03:22:54;;;;;;;18.40;7.27;;;;;;;-1.34;61.28;99754.38;5145523;27;20949;-64
2022/12/16 03:25:23;;;;;;;22.63;8.13;;;;;;;-1.40;61.33;99759.06;5149947;27;20205;-65
2022/12/16 03:27:55;;;;;;;24.77;8.20;;;;;;;-1.41;61.36;99758.25;5143100;27;20213;-65
2022/12/16 03:30:27;;;;;;;22.13;8.80;;;;;;;-1.52;61.47;99755.44;5132117;27;20209;-65
2022/12/16 03:33:02;;;;;;;21.93;8.80;;;;;;;-1.55;61.84;99755.63;5146506;27;20227;-64
2022/12/16 03:35:34;;;;;;;19.03;8.00;;;;;;;-1.54;61.80;99757.28;5148866;27;20450;-65
2022/12/16 03:38:05;;;;;;;20.97;8.93;;;;;;;-1.56;61.72;99759.13;5140832;27;20453;-65
2022/12/16 03:40:34;;;;;;;20.57;8.03;;;;;;;-1.55;61.78;99760.81;5133795;27;20458;-65
2022/12/16 03:43:05;;;;;;;20.90;8.33;;;;;;;-1.62;61.89;99760.34;5149200;27;20474;-66
2022/12/16 03:45:37;;;;;;;19.77;8.33;;;;;;;-1.62;62.10;99764.69;5134540;27;20447;-64
2022/12/16 03:48:09;;;;;;;20.53;8.30;;;;;;;-1.53;61.92;99766.78;5147673;27;20451;-64
2022/12/16 03:50:39;;;;;;;19.77;7.50;;;;;;;-1.50;61.54;99774.41;5132983;27;20489;-64
2022/12/16 03:53:07;;;;;;;19.77;7.97;;;;;;;-1.49;61.74;99775.22;5136926;27;20571;-64
2022/12/16 03:55:35;;;;;;;18.17;7.67;;;;;;;-1.52;61.61;99776.25;5138760;27;20536;-64
2022/12/16 03:58:03;;;;;;;23.40;8.37;;;;;;;-1.52;61.81;99777.09;5141918;27;20465;-64
2022/12/16 04:00:31;;;;;;;24.07;8.57;;;;;;;-1.48;61.73;99784.69;5137959;27;20454;-64
2022/12/16 04:02:58;;;;;;;22.10;8.00;;;;;;;-1.39;61.33;99779.78;5140397;27;21212;-64
2022/12/16 04:05:28;;;;;;;23.53;9.47;;;;;;;-1.43;61.25;99786.13;5142835;27;20478;-65
2022/12/16 04:07:56;;;;;;;18.80;6.63;;;;;;;-1.56;61.61;99790.34;5141553;27;20202;-65
2022/12/16 04:24:21;;;;;;;25.30;9.20;;;;;;;-1.61;61.54;99802.78;5114328;27;20457;-66
2022/12/16 04:32:24;;;;;;;14.53;6.47;;;;;;;-1.63;61.84;99810.66;5145440;27;20517;-64
2022/12/16 04:34:51;;;;;;;20.87;7.50;;;;;;;-1.69;61.76;99815.38;5147227;27;20476;-64
